createdAt,value
2017-12-19T00:00:34.165Z,11.30
2017-12-19T00:03:02.222Z,10.80
2017-12-19T00:05:30.268Z,11.48
2017-12-19T00:07:58.302Z,10.10
2017-12-19T00:10:26.368Z,11.00
2017-12-19T00:12:54.412Z,10.38
2017-12-19T00:15:22.764Z,10.10
2017-12-19T00:17:51.078Z,10.45
2017-12-19T00:20:19.428Z,10.85
2017-12-19T00:22:47.754Z,10.80
2017-12-19T00:25:16.106Z,12.60
2017-12-19T00:27:44.430Z,10.70
2017-12-19T00:30:12.971Z,10.15
2017-12-19T00:32:41.293Z,11.25
2017-12-19T00:35:09.764Z,10.57
2017-12-19T00:37:38.078Z,11.55
2017-12-19T00:40:06.422Z,11.43
2017-12-19T00:42:34.746Z,12.75
2017-12-19T00:45:03.089Z,12.82
2017-12-19T00:47:31.417Z,12.57
2017-12-19T00:49:59.767Z,12.30
2017-12-19T00:52:28.090Z,12.35
2017-12-19T00:54:56.439Z,13.00
2017-12-19T00:57:24.762Z,13.68
2017-12-19T00:59:53.106Z,12.40
2017-12-19T01:02:21.434Z,11.95
2017-12-19T01:04:49.780Z,12.23
2017-12-19T01:07:18.106Z,15.05
2017-12-19T01:09:46.454Z,14.30
2017-12-19T01:12:14.778Z,13.35
2017-12-19T01:14:43.122Z,13.10
2017-12-19T01:17:11.451Z,13.93
2017-12-19T01:19:39.811Z,13.93
2017-12-19T01:22:08.136Z,13.45
2017-12-19T01:24:36.477Z,13.07
2017-12-19T01:27:04.801Z,13.73
2017-12-19T01:29:33.150Z,15.63
2017-12-19T01:32:01.474Z,16.00
2017-12-19T01:34:29.818Z,12.82
2017-12-19T01:36:58.142Z,15.40
2017-12-19T01:39:26.486Z,15.63
2017-12-19T01:41:54.811Z,17.30
2017-12-19T01:44:23.159Z,15.45
2017-12-19T01:46:51.482Z,17.25
2017-12-19T01:49:19.835Z,16.75
2017-12-19T01:51:48.157Z,15.95
2017-12-19T01:54:16.502Z,16.70
2017-12-19T01:56:44.825Z,17.48
2017-12-19T01:59:13.177Z,16.10
2017-12-19T02:01:41.497Z,15.85
2017-12-19T02:04:09.841Z,17.40
2017-12-19T02:06:38.161Z,19.40
2017-12-19T02:09:06.507Z,17.80
2017-12-19T02:11:34.830Z,18.02
2017-12-19T02:14:03.178Z,18.98
2017-12-19T02:16:32.098Z,17.23
2017-12-19T02:19:00.441Z,19.05
2017-12-19T02:21:28.767Z,18.20
2017-12-19T02:23:57.097Z,17.05
2017-12-19T02:26:25.446Z,17.52
2017-12-19T02:28:53.774Z,18.80
2017-12-19T02:31:22.129Z,18.25
2017-12-19T02:33:50.450Z,17.90
2017-12-19T02:36:18.794Z,17.98
2017-12-19T02:38:47.118Z,21.58
2017-12-19T02:41:15.467Z,20.50
2017-12-19T02:43:43.798Z,19.02
2017-12-19T02:46:12.141Z,18.77
2017-12-19T02:48:40.467Z,20.23
2017-12-19T02:51:08.814Z,18.58
2017-12-19T02:53:37.143Z,18.33
2017-12-19T02:56:05.490Z,20.70
2017-12-19T02:58:33.814Z,22.23
2017-12-19T03:01:02.158Z,20.80
2017-12-19T03:03:30.490Z,19.40
2017-12-19T03:05:58.842Z,20.25
2017-12-19T03:08:27.172Z,21.73
2017-12-19T03:10:55.519Z,20.70
2017-12-19T03:13:23.845Z,21.12
2017-12-19T03:15:52.194Z,20.70
2017-12-19T03:18:20.518Z,21.62
2017-12-19T03:20:48.861Z,21.62
2017-12-19T03:23:17.186Z,21.15
2017-12-19T03:25:45.534Z,21.48
2017-12-19T03:28:13.857Z,21.35
2017-12-19T03:30:42.225Z,21.15
2017-12-19T03:33:10.534Z,22.48
2017-12-19T03:35:38.910Z,22.60
2017-12-19T03:38:07.238Z,19.20
2017-12-19T03:40:35.583Z,21.75
2017-12-19T03:43:03.915Z,21.70
2017-12-19T03:45:32.259Z,23.38
2017-12-19T03:48:00.586Z,20.10
2017-12-19T03:50:28.940Z,21.70
2017-12-19T03:52:57.265Z,21.75
2017-12-19T03:55:25.606Z,21.27
2017-12-19T03:57:53.931Z,20.62
2017-12-19T04:00:22.278Z,23.20
2017-12-19T04:02:50.601Z,21.87
2017-12-19T04:05:18.960Z,23.80
2017-12-19T04:07:47.284Z,18.20
2017-12-19T04:10:15.642Z,22.17
2017-12-19T04:12:43.977Z,22.35
2017-12-19T04:15:12.324Z,20.00
2017-12-19T04:17:40.647Z,19.48
2017-12-19T04:20:08.994Z,20.58
2017-12-19T04:22:37.318Z,19.17
2017-12-19T04:25:05.662Z,21.40
2017-12-19T04:27:33.986Z,21.70
2017-12-19T04:30:02.339Z,21.27
2017-12-19T04:32:30.658Z,20.23
2017-12-19T04:34:59.010Z,20.77
2017-12-19T04:37:27.330Z,19.25
2017-12-19T04:39:55.674Z,20.80
2017-12-19T04:42:23.998Z,20.52
2017-12-19T04:44:52.362Z,19.25
2017-12-19T04:47:20.699Z,18.77
2017-12-19T04:49:49.026Z,18.15
2017-12-19T04:52:17.373Z,19.27
2017-12-19T04:54:45.698Z,20.58
2017-12-19T04:57:14.042Z,21.87
2017-12-19T04:59:42.374Z,20.73
2017-12-19T05:02:10.717Z,21.58
2017-12-19T05:04:39.046Z,20.05
2017-12-19T05:07:07.394Z,21.60
2017-12-19T05:09:35.726Z,21.30
2017-12-19T05:12:04.070Z,21.95
2017-12-19T05:14:32.402Z,22.25
2017-12-19T05:17:00.742Z,24.02
2017-12-19T05:19:29.075Z,19.20
2017-12-19T05:21:57.418Z,18.58
2017-12-19T05:24:25.748Z,20.65
2017-12-19T05:26:54.091Z,20.65
2017-12-19T05:29:22.422Z,20.50
2017-12-19T05:31:50.778Z,21.53
2017-12-19T05:34:19.109Z,19.90
2017-12-19T05:36:47.455Z,21.33
2017-12-19T05:39:15.787Z,20.27
2017-12-19T05:41:44.139Z,19.83
2017-12-19T05:44:12.466Z,20.70
2017-12-19T05:46:40.814Z,20.60
2017-12-19T05:49:09.143Z,18.87
2017-12-19T05:51:37.500Z,21.67
2017-12-19T05:54:05.874Z,21.43
2017-12-19T05:56:34.270Z,22.10
2017-12-19T05:59:02.796Z,20.27
2017-12-19T06:01:31.144Z,20.47
2017-12-19T06:03:59.479Z,23.37
2017-12-19T06:06:27.826Z,21.30
2017-12-19T06:08:56.158Z,18.97
2017-12-19T06:11:24.502Z,20.90
2017-12-19T06:13:52.838Z,20.53
2017-12-19T06:16:21.191Z,19.05
2017-12-19T06:18:49.522Z,18.40
2017-12-19T06:21:17.870Z,20.55
2017-12-19T06:23:46.202Z,21.73
2017-12-19T06:26:14.555Z,21.00
2017-12-19T06:28:42.878Z,19.03
2017-12-19T06:31:11.225Z,19.27
2017-12-19T06:33:39.559Z,17.70
2017-12-19T06:36:07.906Z,19.00
2017-12-19T06:38:36.247Z,19.27
2017-12-19T06:41:04.590Z,21.00
2017-12-19T06:43:39.108Z,20.17
2017-12-19T06:46:07.939Z,21.17
2017-12-19T06:48:36.295Z,18.80
2017-12-19T06:51:04.627Z,21.03
2017-12-19T06:53:32.959Z,20.60
2017-12-19T06:56:01.325Z,21.17
2017-12-19T06:58:29.666Z,18.27
2017-12-19T07:00:58.012Z,20.13
2017-12-19T07:03:26.342Z,20.93
2017-12-19T07:05:54.700Z,19.77
2017-12-19T07:08:23.163Z,21.60
2017-12-19T07:10:51.511Z,21.47
2017-12-19T07:13:19.947Z,21.15
2017-12-19T07:15:48.280Z,18.43
2017-12-19T07:18:17.270Z,21.80
2017-12-19T07:20:46.308Z,22.47
2017-12-19T07:23:15.087Z,19.70
2017-12-19T07:25:43.406Z,21.17
2017-12-19T07:28:11.765Z,21.30
2017-12-19T07:30:40.094Z,23.30
2017-12-19T07:33:08.443Z,21.98
2017-12-19T07:35:36.779Z,20.92
2017-12-19T07:38:05.135Z,21.50
2017-12-19T07:40:33.463Z,23.17
2017-12-19T07:43:01.858Z,21.40
2017-12-19T07:45:30.139Z,24.33
2017-12-19T07:47:58.490Z,24.00
2017-12-19T07:50:26.850Z,21.30
2017-12-19T07:52:55.254Z,21.52
2017-12-19T07:55:23.588Z,21.80
2017-12-19T07:57:51.975Z,19.80
2017-12-19T08:00:20.362Z,22.17
2017-12-19T08:02:48.848Z,21.93
2017-12-19T08:05:17.316Z,20.40
2017-12-19T08:07:45.767Z,22.10
2017-12-19T08:10:14.090Z,20.50
2017-12-19T08:12:42.439Z,20.20
2017-12-19T08:15:11.113Z,20.70
2017-12-19T08:17:39.472Z,19.73
2017-12-19T08:20:07.819Z,20.97
2017-12-19T08:22:36.179Z,20.20
2017-12-19T08:25:04.525Z,19.70
2017-12-19T08:27:32.888Z,19.93
2017-12-19T08:30:01.223Z,19.57
2017-12-19T08:32:29.623Z,22.15
2017-12-19T08:34:57.919Z,24.70
2017-12-19T08:37:26.276Z,22.63
2017-12-19T08:39:54.607Z,18.90
2017-12-19T08:42:22.962Z,21.47
2017-12-19T08:44:51.286Z,21.13
2017-12-19T08:47:19.644Z,20.23
2017-12-19T08:49:47.979Z,21.40
2017-12-19T08:52:16.338Z,18.50
2017-12-19T08:54:44.661Z,17.77
2017-12-19T08:57:13.263Z,16.80
2017-12-19T08:59:41.588Z,18.77
2017-12-19T09:02:09.954Z,17.67
2017-12-19T09:04:38.286Z,15.97
2017-12-19T09:07:06.645Z,16.90
2017-12-19T09:09:34.980Z,20.47
2017-12-19T09:12:03.322Z,18.50
2017-12-19T09:14:31.654Z,18.55
2017-12-19T09:17:00.583Z,18.43
2017-12-19T09:19:28.911Z,21.97
2017-12-19T09:21:57.266Z,18.70
2017-12-19T09:24:25.594Z,19.53
2017-12-19T09:26:53.943Z,21.00
2017-12-19T09:29:22.268Z,19.73
2017-12-19T09:31:50.599Z,20.20
2017-12-19T09:34:18.950Z,20.53
2017-12-19T09:36:47.470Z,21.03
2017-12-19T09:39:15.822Z,20.10
2017-12-19T09:41:44.154Z,19.80
2017-12-19T09:44:12.499Z,18.97
2017-12-19T09:46:40.838Z,18.80
2017-12-19T09:49:09.202Z,15.33
2017-12-19T09:51:37.531Z,17.13
2017-12-19T09:54:05.883Z,17.67
2017-12-19T09:56:34.914Z,16.17
2017-12-19T09:59:03.266Z,17.57
2017-12-19T10:01:31.753Z,19.90
2017-12-19T10:04:00.123Z,20.00
2017-12-19T10:06:28.457Z,16.40
2017-12-19T10:08:56.818Z,16.17
2017-12-19T10:11:25.147Z,15.20
2017-12-19T10:13:53.498Z,15.17
2017-12-19T10:16:21.835Z,13.50
2017-12-19T10:18:50.182Z,15.98
2017-12-19T10:21:18.507Z,14.30
2017-12-19T10:23:46.862Z,14.73
2017-12-19T10:26:15.186Z,15.53
2017-12-19T10:28:43.534Z,17.00
2017-12-19T10:31:11.873Z,15.00
2017-12-19T10:33:44.080Z,15.37
2017-12-19T10:36:12.414Z,14.50
2017-12-19T10:38:41.128Z,14.40
2017-12-19T10:41:09.462Z,15.50
2017-12-19T10:43:37.831Z,15.23
2017-12-19T10:46:06.166Z,16.00
2017-12-19T10:48:34.526Z,16.52
2017-12-19T10:51:02.851Z,15.57
2017-12-19T10:53:31.202Z,16.65
2017-12-19T10:55:59.536Z,15.80
2017-12-19T10:58:27.891Z,16.93
2017-12-19T11:00:56.216Z,19.25
2017-12-19T11:03:24.566Z,19.73
2017-12-19T11:05:52.896Z,19.07
2017-12-19T11:08:21.242Z,17.90
2017-12-19T11:10:49.574Z,17.23
2017-12-19T11:13:17.935Z,26.57
2017-12-19T11:15:46.563Z,19.37
2017-12-19T11:18:14.905Z,18.60
2017-12-19T11:20:43.238Z,17.70
2017-12-19T11:23:11.599Z,16.58
2017-12-19T11:25:39.930Z,18.27
2017-12-19T11:28:08.274Z,17.20
2017-12-19T11:30:36.610Z,19.47
2017-12-19T11:33:04.962Z,16.70
2017-12-19T11:35:33.303Z,18.47
2017-12-19T11:38:01.658Z,18.43
2017-12-19T11:40:29.986Z,16.53
2017-12-19T11:42:58.358Z,18.60
2017-12-19T11:45:26.673Z,19.90
2017-12-19T11:47:55.019Z,17.73
2017-12-19T11:50:23.346Z,19.95
2017-12-19T11:52:51.706Z,19.37
2017-12-19T11:55:20.035Z,18.70
2017-12-19T11:57:48.422Z,20.33
2017-12-19T12:00:16.779Z,20.30
2017-12-19T12:02:45.101Z,17.97
2017-12-19T12:05:13.454Z,18.70
2017-12-19T12:07:41.782Z,18.17
2017-12-19T12:10:10.126Z,19.07
2017-12-19T12:12:38.458Z,18.67
2017-12-19T12:15:06.812Z,21.47
2017-12-19T12:17:35.145Z,16.87
2017-12-19T12:20:03.499Z,16.97
2017-12-19T12:22:31.836Z,17.00
2017-12-19T12:25:00.195Z,17.02
2017-12-19T12:27:28.527Z,18.10
2017-12-19T12:29:56.879Z,15.52
2017-12-19T12:32:25.215Z,15.90
2017-12-19T12:34:53.606Z,16.63
2017-12-19T12:37:21.944Z,10.73
2017-12-19T12:39:50.295Z,17.10
2017-12-19T12:42:18.636Z,15.43
2017-12-19T12:44:46.999Z,17.25
2017-12-19T12:47:15.331Z,15.40
2017-12-19T12:49:43.677Z,14.83
2017-12-19T12:52:12.013Z,16.00
2017-12-19T12:54:40.368Z,15.05
2017-12-19T12:57:08.693Z,14.97
2017-12-19T12:59:37.055Z,15.23
2017-12-19T13:02:05.383Z,15.50
2017-12-19T13:04:33.735Z,13.75
2017-12-19T13:07:02.068Z,13.40
2017-12-19T13:09:30.418Z,13.85
2017-12-19T13:11:58.750Z,14.07
2017-12-19T13:14:27.102Z,15.20
2017-12-19T13:16:55.478Z,14.43
2017-12-19T13:19:23.835Z,14.00
2017-12-19T13:21:52.159Z,15.30
2017-12-19T13:24:20.528Z,16.25
2017-12-19T13:26:48.862Z,17.43
2017-12-19T13:29:17.291Z,18.00
2017-12-19T13:31:45.647Z,16.83
2017-12-19T13:34:13.979Z,17.67
2017-12-19T13:36:42.334Z,16.57
2017-12-19T13:39:10.668Z,15.67
2017-12-19T13:41:39.020Z,18.33
2017-12-19T13:44:07.341Z,18.05
2017-12-19T13:46:35.718Z,19.00
2017-12-19T13:49:04.027Z,18.90
2017-12-19T13:51:32.373Z,18.73
2017-12-19T13:54:00.711Z,20.07
2017-12-19T13:56:29.063Z,17.90
2017-12-19T13:58:57.391Z,19.87
2017-12-19T14:01:25.743Z,20.10
2017-12-19T14:03:54.066Z,19.63
2017-12-19T14:06:22.418Z,19.57
2017-12-19T14:08:50.746Z,18.77
2017-12-19T14:11:19.098Z,20.25
2017-12-19T14:13:48.044Z,18.90
2017-12-19T14:16:16.379Z,18.30
2017-12-19T14:18:44.714Z,17.80
2017-12-19T14:21:13.062Z,16.30
2017-12-19T14:23:41.391Z,18.83
2017-12-19T14:26:09.747Z,17.50
2017-12-19T14:28:38.078Z,17.13
2017-12-19T14:31:06.929Z,19.45
2017-12-19T14:33:35.259Z,13.73
2017-12-19T14:36:03.606Z,23.33
2017-12-19T14:38:31.934Z,18.33
2017-12-19T14:41:00.291Z,17.60
2017-12-19T14:43:28.623Z,15.80
2017-12-19T14:45:56.975Z,16.93
2017-12-19T14:48:25.495Z,16.33
2017-12-19T14:50:53.845Z,15.53
2017-12-19T14:53:22.346Z,16.27
2017-12-19T14:55:50.993Z,18.77
2017-12-19T14:58:19.530Z,15.30
2017-12-19T15:00:47.959Z,15.13
2017-12-19T15:03:16.303Z,15.97
2017-12-19T15:05:44.651Z,17.87
2017-12-19T15:08:12.983Z,16.17
2017-12-19T15:10:41.335Z,17.40
2017-12-19T15:13:09.662Z,16.33
2017-12-19T15:15:38.010Z,17.00
2017-12-19T15:18:06.343Z,18.50
2017-12-19T15:20:34.694Z,14.90
2017-12-19T15:23:03.022Z,17.00
2017-12-19T15:25:32.313Z,15.83
2017-12-19T15:28:00.638Z,17.90
2017-12-19T15:30:29.027Z,14.60
2017-12-19T15:32:57.322Z,17.00
2017-12-19T15:35:25.646Z,15.50
2017-12-19T15:37:54.002Z,18.07
2017-12-19T15:40:22.330Z,16.17
2017-12-19T15:42:50.678Z,15.87
2017-12-19T15:45:19.019Z,15.00
2017-12-19T15:47:47.370Z,16.07
2017-12-19T15:50:15.707Z,17.98
2017-12-19T15:52:44.053Z,18.70
2017-12-19T15:55:12.386Z,21.40
2017-12-19T15:57:40.738Z,24.20
2017-12-19T16:00:09.064Z,21.07
2017-12-19T16:02:37.685Z,16.20
2017-12-19T16:05:06.047Z,16.83
2017-12-19T16:07:34.430Z,17.73
2017-12-19T16:10:02.759Z,16.53
2017-12-19T16:12:32.236Z,14.95
2017-12-19T16:15:00.550Z,16.50
2017-12-19T16:17:28.903Z,15.37
2017-12-19T16:19:57.230Z,17.73
2017-12-19T16:22:25.598Z,17.17
2017-12-19T16:24:56.822Z,16.90
2017-12-19T16:27:25.179Z,18.17
2017-12-19T16:29:53.510Z,18.00
2017-12-19T16:32:22.508Z,18.47
2017-12-19T16:34:50.841Z,15.97
2017-12-19T16:37:19.199Z,19.87
2017-12-19T16:39:47.662Z,17.25
2017-12-19T16:42:16.040Z,15.80
2017-12-19T16:44:44.510Z,17.65
2017-12-19T16:47:13.154Z,20.23
2017-12-19T16:49:41.511Z,21.83
2017-12-19T16:52:09.854Z,19.40
2017-12-19T16:54:38.183Z,16.63
2017-12-19T16:57:06.540Z,17.42
2017-12-19T16:59:34.876Z,16.20
2017-12-19T17:02:03.222Z,15.32
2017-12-19T17:04:31.550Z,19.20
2017-12-19T17:06:59.908Z,16.60
2017-12-19T17:09:28.240Z,17.90
2017-12-19T17:11:56.587Z,15.87
2017-12-19T17:14:24.915Z,18.10
2017-12-19T17:16:53.267Z,17.70
2017-12-19T17:19:21.595Z,15.77
2017-12-19T17:21:49.946Z,17.67
2017-12-19T17:24:18.271Z,15.80
2017-12-19T17:26:46.619Z,16.57
2017-12-19T17:29:14.953Z,15.60
2017-12-19T17:31:43.699Z,20.08
2017-12-19T17:34:12.018Z,18.43
2017-12-19T17:36:40.346Z,17.13
2017-12-19T17:39:08.699Z,19.67
2017-12-19T17:41:37.019Z,17.57
2017-12-19T17:44:05.370Z,17.52
2017-12-19T17:46:33.694Z,18.53
2017-12-19T17:49:02.047Z,19.93
2017-12-19T17:51:30.374Z,19.43
2017-12-19T17:53:58.722Z,18.07
2017-12-19T17:56:27.054Z,17.80
2017-12-19T17:58:55.403Z,19.02
2017-12-19T18:01:23.735Z,19.52
2017-12-19T18:03:52.081Z,17.40
2017-12-19T18:06:20.411Z,21.48
2017-12-19T18:08:48.762Z,18.87
2017-12-19T18:11:18.015Z,20.60
2017-12-19T18:13:46.363Z,18.03
2017-12-19T18:16:14.693Z,19.47
2017-12-19T18:18:43.043Z,19.17
2017-12-19T18:21:11.366Z,19.27
2017-12-19T18:23:39.718Z,18.00
2017-12-19T18:26:08.045Z,19.30
2017-12-19T18:28:36.390Z,20.10
2017-12-19T18:31:04.927Z,20.40
2017-12-19T18:33:33.413Z,20.63
2017-12-19T18:36:01.743Z,20.93
2017-12-19T18:38:30.099Z,21.90
2017-12-19T18:40:58.431Z,18.97
2017-12-19T18:43:26.778Z,23.12
2017-12-19T18:45:55.114Z,20.93
2017-12-19T18:48:24.302Z,20.10
2017-12-19T18:50:52.637Z,19.00
2017-12-19T18:53:20.989Z,18.90
2017-12-19T18:55:49.317Z,20.45
2017-12-19T18:58:17.669Z,19.30
2017-12-19T19:00:45.999Z,21.33
2017-12-19T19:03:14.351Z,19.17
2017-12-19T19:05:42.990Z,21.62
2017-12-19T19:08:11.346Z,20.63
2017-12-19T19:10:39.671Z,20.87
2017-12-19T19:13:08.064Z,19.30
2017-12-19T19:15:36.347Z,20.23
2017-12-19T19:18:04.695Z,22.80
2017-12-19T19:20:33.018Z,20.03
2017-12-19T19:23:01.375Z,20.57
2017-12-19T19:25:30.536Z,20.77
2017-12-19T19:27:58.886Z,20.70
2017-12-19T19:30:27.219Z,21.30
2017-12-19T19:32:55.579Z,21.07
2017-12-19T19:35:23.963Z,20.65
2017-12-19T19:37:52.338Z,23.17
2017-12-19T19:40:20.668Z,21.50
2017-12-19T19:42:48.999Z,22.73
2017-12-19T19:45:18.251Z,22.67
2017-12-19T19:47:46.580Z,20.58
2017-12-19T19:50:15.855Z,21.30
2017-12-19T19:52:44.336Z,21.20
2017-12-19T19:55:14.126Z,22.70
2017-12-19T19:57:43.351Z,21.50
2017-12-19T20:00:11.703Z,23.30
2017-12-19T20:02:40.033Z,23.73
2017-12-19T20:05:08.396Z,27.07
2017-12-19T20:07:36.731Z,24.40
2017-12-19T20:10:05.086Z,21.30
2017-12-19T20:12:33.422Z,23.03
2017-12-19T20:15:01.767Z,22.33
2017-12-19T20:17:31.042Z,23.90
2017-12-19T20:19:59.397Z,23.00
2017-12-19T20:22:27.726Z,22.07
2017-12-19T20:24:56.082Z,23.80
2017-12-19T20:27:24.454Z,23.37
2017-12-19T20:29:52.815Z,23.00
2017-12-19T20:32:21.160Z,20.65
2017-12-19T20:34:49.737Z,19.17
2017-12-19T20:37:18.830Z,18.93
2017-12-19T20:39:47.619Z,21.43
2017-12-19T20:42:16.260Z,18.90
2017-12-19T20:44:45.192Z,18.90
2017-12-19T20:47:13.876Z,16.08
2017-12-19T20:49:42.315Z,16.70
2017-12-19T20:52:10.663Z,16.10
2017-12-19T20:54:39.063Z,18.07
2017-12-19T20:57:07.408Z,18.37
2017-12-19T20:59:35.863Z,16.40
2017-12-19T21:02:04.213Z,16.80
2017-12-19T21:04:32.665Z,16.90
2017-12-19T21:07:01.302Z,15.33
2017-12-19T21:09:30.397Z,15.20
2017-12-19T21:11:58.824Z,15.50
2017-12-19T21:14:27.249Z,16.67
2017-12-19T21:16:55.558Z,15.50
2017-12-19T21:19:23.966Z,16.27
2017-12-19T21:21:52.336Z,16.33
2017-12-19T21:24:20.687Z,15.20
2017-12-19T21:26:49.013Z,15.53
2017-12-19T21:29:17.451Z,15.40
2017-12-19T21:31:45.767Z,15.47
2017-12-19T21:34:14.134Z,15.90
2017-12-19T21:36:42.465Z,16.90
2017-12-19T21:39:10.910Z,18.20
2017-12-19T21:41:40.177Z,17.27
2017-12-19T21:44:08.808Z,17.48
2017-12-19T21:46:37.236Z,17.97
2017-12-19T21:49:05.641Z,17.90
2017-12-19T21:51:34.003Z,19.40
2017-12-19T21:54:02.458Z,21.83
2017-12-19T21:56:31.099Z,18.37
2017-12-19T21:58:59.526Z,17.93
2017-12-19T22:01:28.309Z,16.93
2017-12-19T22:03:56.706Z,14.17
2017-12-19T22:06:25.186Z,14.50
2017-12-19T22:08:53.514Z,14.47
2017-12-19T22:11:22.014Z,15.20
2017-12-19T22:13:50.342Z,15.15
2017-12-19T22:16:18.790Z,14.77
2017-12-19T22:18:47.118Z,16.43
2017-12-19T22:21:15.540Z,17.57
2017-12-19T22:23:43.910Z,16.87
2017-12-19T22:26:12.266Z,14.40
2017-12-19T22:28:40.589Z,16.37
2017-12-19T22:31:09.928Z,16.23
2017-12-19T22:33:38.602Z,15.73
2017-12-19T22:36:07.387Z,16.67
2017-12-19T22:38:35.806Z,18.17
2017-12-19T22:41:04.156Z,17.20
2017-12-19T22:43:32.500Z,17.05
2017-12-19T22:46:00.859Z,15.57
2017-12-19T22:48:29.182Z,15.57
2017-12-19T22:50:57.606Z,14.50
2017-12-19T22:53:25.930Z,15.68
2017-12-19T22:55:54.258Z,15.50
2017-12-19T22:58:22.610Z,15.47
2017-12-19T23:00:51.421Z,14.03
2017-12-19T23:03:19.775Z,13.40
2017-12-19T23:05:48.171Z,14.50
2017-12-19T23:08:16.905Z,14.90
2017-12-19T23:10:45.252Z,13.30
2017-12-19T23:13:13.706Z,13.43
2017-12-19T23:15:42.843Z,14.73
2017-12-19T23:18:11.190Z,14.07
2017-12-19T23:20:39.559Z,13.93
2017-12-19T23:23:07.911Z,13.10
2017-12-19T23:25:36.238Z,13.10
2017-12-19T23:28:04.688Z,10.97
2017-12-19T23:30:33.014Z,11.90
2017-12-19T23:33:01.450Z,13.20
2017-12-19T23:35:29.805Z,10.68
2017-12-19T23:37:58.146Z,12.68
2017-12-19T23:40:26.469Z,11.25
2017-12-19T23:42:54.819Z,11.38
2017-12-19T23:45:23.150Z,11.98
2017-12-19T23:47:51.614Z,10.07
2017-12-19T23:50:19.934Z,11.25
2017-12-19T23:52:48.458Z,11.02
2017-12-19T23:55:16.786Z,10.85
2017-12-19T23:57:45.127Z,9.70
